Time;durP1;ratioP1;P1;durP2;ratioP2;P2;SDS_P1;SDS_P2;PMS_P1;PMS_P2;Temp;Humidity;BMP_temperature;BMP_pressure;BME280_temperature;BME280_humidity;BME280_pressure;Samples;Min_cycle;Max_cycle;Signal;HPM_P1;HPM_P2
2023/08/20 00:00:11;;;;;;;9.18;7.78;;;;;;;15.15;100.00;101882.88;5047582;28;20440;-79
2023/08/20 00:02:37;;;;;;;7.78;7.07;;;;;;;15.12;100.00;101873.22;5049388;28;20037;-79
2023/08/20 00:05:05;;;;;;;9.25;7.22;;;;;;;15.09;100.00;101872.81;5049229;28;20358;-79
2023/08/20 00:07:31;;;;;;;11.77;9.02;;;;;;;15.08;100.00;101887.41;5046584;28;20627;-78
2023/08/20 00:10:00;;;;;;;10.15;8.60;;;;;;;15.04;100.00;101880.72;5047580;28;20025;-79
2023/08/20 00:12:26;;;;;;;12.27;8.38;;;;;;;14.99;100.00;101887.59;5038227;28;20034;-79
2023/08/20 00:15:04;;;;;;;12.80;8.38;;;;;;;14.96;100.00;101882.56;5046451;28;20033;-79
2023/08/20 00:17:37;;;;;;;11.70;7.95;;;;;;;14.93;100.00;101885.69;5053107;28;20032;-80
2023/08/20 00:20:12;;;;;;;10.23;8.60;;;;;;;14.92;100.00;101881.28;5043976;28;20032;-79
2023/08/20 00:22:42;;;;;;;14.10;8.43;;;;;;;14.90;100.00;101877.94;5052053;28;20036;-79
2023/08/20 00:25:08;;;;;;;11.85;8.02;;;;;;;14.87;100.00;101877.50;5059988;28;20029;-80
2023/08/20 00:27:33;;;;;;;13.80;8.13;;;;;;;14.84;100.00;101873.31;5051623;28;20187;-79
2023/08/20 00:29:58;;;;;;;10.73;8.63;;;;;;;14.83;100.00;101877.06;5044543;28;20032;-80
2023/08/20 00:32:24;;;;;;;11.82;8.23;;;;;;;14.82;100.00;101878.13;5059519;28;20024;-80
2023/08/20 00:34:49;;;;;;;12.88;10.20;;;;;;;14.80;100.00;101872.06;5056251;28;20046;-79
2023/08/20 00:37:15;;;;;;;14.98;12.05;;;;;;;14.77;100.00;101877.88;5078439;28;20024;-80
2023/08/20 00:39:40;;;;;;;10.60;9.60;;;;;;;14.75;100.00;101883.47;5048235;28;20026;-79
2023/08/20 00:42:07;;;;;;;15.57;13.73;;;;;;;14.71;100.00;101884.94;5074584;28;20031;-80
2023/08/20 00:44:32;;;;;;;11.05;9.60;;;;;;;14.73;100.00;101890.16;5064058;28;20175;-80
2023/08/20 00:47:00;;;;;;;10.13;8.70;;;;;;;14.69;100.00;101893.25;5054126;28;20469;-79
2023/08/20 00:49:25;;;;;;;10.85;8.48;;;;;;;14.74;100.00;101899.94;5039000;28;20029;-80
2023/08/20 00:51:54;;;;;;;14.82;9.75;;;;;;;14.79;100.00;101909.16;5030019;28;20041;-80
2023/08/20 00:54:20;;;;;;;9.23;8.30;;;;;;;14.77;100.00;101915.81;5045419;28;20025;-79
2023/08/20 00:56:45;;;;;;;9.38;8.38;;;;;;;14.76;100.00;101909.53;5053556;28;20504;-79
2023/08/20 00:59:11;;;;;;;10.73;8.52;;;;;;;14.73;100.00;101919.97;5035856;28;20037;-80
2023/08/20 01:01:36;;;;;;;11.65;8.75;;;;;;;14.69;100.00;101925.78;5051685;28;20028;-79
2023/08/20 01:04:07;;;;;;;11.63;9.00;;;;;;;14.70;100.00;101932.03;5039325;28;20524;-80
2023/08/20 01:06:54;;;;;;;10.13;8.93;;;;;;;14.65;100.00;101935.28;5058311;28;20021;-79
2023/08/20 01:09:28;;;;;;;10.77;8.75;;;;;;;14.64;100.00;101932.78;5032251;28;20039;-79
2023/08/20 01:11:56;;;;;;;9.65;8.60;;;;;;;14.67;100.00;101933.22;5027361;28;20032;-79
2023/08/20 01:14:23;;;;;;;12.50;9.82;;;;;;;14.75;100.00;101939.56;5014790;28;20033;-79
2023/08/20 01:16:49;;;;;;;11.25;9.60;;;;;;;14.79;100.00;101938.16;5044384;28;20144;-79
2023/08/20 01:19:16;;;;;;;12.63;10.02;;;;;;;14.84;100.00;101932.94;5080179;28;20169;-79
2023/08/20 01:21:57;;;;;;;12.82;9.93;;;;;;;14.91;100.00;101938.44;5058995;28;20103;-79
2023/08/20 01:24:29;;;;;;;12.90;10.20;;;;;;;14.96;100.00;101927.81;5049426;28;20082;-80
2023/08/20 01:27:32;;;;;;;11.70;9.57;;;;;;;15.01;100.00;101917.22;5039705;28;20124;-79
2023/08/20 01:29:57;;;;;;;11.57;9.40;;;;;;;15.06;100.00;101913.88;5023676;28;20475;-80
2023/08/20 01:32:23;;;;;;;12.90;9.07;;;;;;;15.04;100.00;101913.25;5031205;28;20039;-80
2023/08/20 01:34:48;;;;;;;11.88;8.85;;;;;;;14.98;100.00;101913.03;5032727;28;20032;-80
2023/08/20 01:37:14;;;;;;;12.57;9.73;;;;;;;14.94;100.00;101908.19;5052324;28;20053;-80
2023/08/20 01:39:39;;;;;;;11.95;9.85;;;;;;;14.90;100.00;101906.94;5051813;28;20044;-80
2023/08/20 01:42:06;;;;;;;11.98;9.55;;;;;;;14.87;100.00;101905.44;5058709;28;20028;-79
2023/08/20 01:44:31;;;;;;;12.07;10.02;;;;;;;14.83;100.00;101912.28;5051012;28;20049;-80
2023/08/20 01:46:57;;;;;;;14.77;10.50;;;;;;;14.79;100.00;101911.88;5049409;28;20031;-79
2023/08/20 01:49:23;;;;;;;13.85;9.75;;;;;;;14.75;100.00;101918.72;5048320;28;20117;-79
2023/08/20 01:51:48;;;;;;;14.25;11.15;;;;;;;14.73;100.00;101915.38;5054529;28;20021;-79
2023/08/20 01:54:13;;;;;;;12.32;10.82;;;;;;;14.68;100.00;101915.13;5050668;28;20028;-79
2023/08/20 01:56:40;;;;;;;13.55;10.55;;;;;;;14.74;100.00;101936.00;5052655;28;20449;-79
2023/08/20 01:59:05;;;;;;;15.20;10.40;;;;;;;14.80;100.00;101932.53;5055304;28;20106;-78
2023/08/20 02:01:31;;;;;;;13.13;11.02;;;;;;;14.75;100.00;101939.56;5050177;28;20037;-79
2023/08/20 02:03:56;;;;;;;16.92;11.23;;;;;;;14.72;100.00;101942.69;5052108;28;20020;-78
2023/08/20 02:06:24;;;;;;;14.45;11.25;;;;;;;14.69;100.00;101950.16;5060038;28;20032;-79
2023/08/20 02:08:50;;;;;;;13.85;10.40;;;;;;;14.65;100.00;101946.13;5051174;28;20477;-79
2023/08/20 02:11:15;;;;;;;17.05;13.02;;;;;;;14.68;100.00;101956.63;5057495;28;20028;-79
2023/08/20 02:13:41;;;;;;;17.10;12.50;;;;;;;14.72;100.00;101975.19;5062040;28;20185;-79
2023/08/20 02:16:06;;;;;;;16.10;12.25;;;;;;;14.77;100.00;101980.88;5049290;28;20020;-79
2023/08/20 02:18:32;;;;;;;16.92;12.50;;;;;;;14.80;100.00;101992.16;5065178;28;20024;-79
2023/08/20 02:20:57;;;;;;;14.45;11.43;;;;;;;14.80;100.00;101984.03;5056192;28;20044;-79
2023/08/20 02:23:23;;;;;;;14.93;11.10;;;;;;;14.81;100.00;101984.88;5067318;28;20114;-79
2023/08/20 02:25:54;;;;;;;15.35;11.80;;;;;;;14.82;100.00;101990.09;5066466;28;20024;-79
2023/08/20 02:28:19;;;;;;;14.77;10.75;;;;;;;14.77;100.00;101980.88;5046806;28;20028;-78
2023/08/20 02:30:45;;;;;;;13.77;11.55;;;;;;;14.73;100.00;101985.00;5044959;28;20391;-79
2023/08/20 02:33:11;;;;;;;14.85;11.60;;;;;;;14.71;100.00;101993.34;5057416;28;20079;-80
2023/08/20 02:35:39;;;;;;;16.50;12.02;;;;;;;14.71;100.00;101987.94;5057892;28;20020;-80
2023/08/20 02:38:05;;;;;;;14.63;11.38;;;;;;;14.69;100.00;101990.81;5055225;28;20147;-80
2023/08/20 02:40:31;;;;;;;14.90;11.60;;;;;;;14.73;100.00;101988.56;5054779;28;20021;-80
2023/08/20 02:42:56;;;;;;;16.98;12.55;;;;;;;14.81;100.00;101990.28;5059309;28;20044;-80
2023/08/20 02:45:21;;;;;;;13.70;11.95;;;;;;;14.88;100.00;101990.34;5048659;28;20496;-80
2023/08/20 02:47:48;;;;;;;12.88;11.15;;;;;;;14.94;100.00;101984.09;5047078;28;20472;-79
2023/08/20 02:50:13;;;;;;;14.18;10.88;;;;;;;14.96;100.00;101982.91;5047550;28;20151;-78
2023/08/20 02:52:38;;;;;;;13.30;11.50;;;;;;;14.94;100.00;101976.81;5047066;28;20025;-78
2023/08/20 02:55:04;;;;;;;12.73;10.32;;;;;;;14.94;100.00;101979.53;5058417;28;20479;-78
2023/08/20 02:57:30;;;;;;;13.85;11.15;;;;;;;14.94;100.00;101981.41;5055244;28;20597;-78
2023/08/20 02:59:56;;;;;;;12.45;10.02;;;;;;;14.93;100.00;101979.72;5050093;28;20024;-78
2023/08/20 03:02:22;;;;;;;14.50;10.48;;;;;;;14.87;100.00;101978.63;5048148;28;20029;-78
2023/08/20 03:04:47;;;;;;;15.13;10.73;;;;;;;14.81;100.00;101982.16;5048140;28;20044;-78
2023/08/20 03:07:12;;;;;;;14.18;11.43;;;;;;;14.79;100.00;101978.81;5057380;28;20033;-78
2023/08/20 03:09:38;;;;;;;16.23;11.32;;;;;;;14.75;100.00;101975.63;5051558;28;20033;-78
2023/08/20 03:12:03;;;;;;;16.85;11.38;;;;;;;14.70;100.00;101962.69;5069176;28;20043;-78
2023/08/20 03:14:29;;;;;;;18.13;11.63;;;;;;;14.67;100.00;101967.63;5061071;28;20143;-78
2023/08/20 03:16:54;;;;;;;15.10;11.60;;;;;;;14.64;100.00;101971.59;5049177;28;20029;-78
2023/08/20 03:19:20;;;;;;;17.95;12.25;;;;;;;14.64;100.00;101968.88;5052204;28;20025;-78
2023/08/20 03:21:45;;;;;;;17.20;12.45;;;;;;;14.64;100.00;101960.75;5050815;28;20029;-78
2023/08/20 03:24:10;;;;;;;14.55;11.13;;;;;;;14.65;100.00;101959.69;5061869;28;20867;-78
2023/08/20 03:26:36;;;;;;;15.93;11.07;;;;;;;14.66;100.00;101947.81;5049719;28;20041;-78
2023/08/20 03:29:03;;;;;;;14.88;11.10;;;;;;;14.64;100.00;101946.34;5050156;28;20114;-78
2023/08/20 03:31:28;;;;;;;12.07;10.73;;;;;;;14.61;100.00;101934.03;5059020;28;20079;-78
2023/08/20 03:33:54;;;;;;;18.23;11.40;;;;;;;14.59;100.00;101952.34;5047844;28;20021;-78
2023/08/20 03:36:19;;;;;;;16.77;11.68;;;;;;;14.55;100.00;101951.06;5057798;28;20469;-78
2023/08/20 03:38:44;;;;;;;13.50;10.75;;;;;;;14.49;100.00;101950.00;5049138;28;20031;-78
2023/08/20 03:41:10;;;;;;;13.13;10.68;;;;;;;14.54;100.00;101950.25;5057619;28;20499;-78
2023/08/20 03:43:35;;;;;;;13.02;10.60;;;;;;;14.55;100.00;101951.06;5059170;28;20392;-78
2023/08/20 03:46:01;;;;;;;13.45;10.45;;;;;;;14.48;100.00;101936.63;5057348;28;20135;-78
2023/08/20 03:48:27;;;;;;;13.98;10.90;;;;;;;14.42;100.00;101932.84;5049927;28;20111;-78
2023/08/20 03:50:52;;;;;;;13.32;9.82;;;;;;;14.36;100.00;101930.94;5060371;28;20411;-78
2023/08/20 03:53:17;;;;;;;13.85;10.75;;;;;;;14.31;100.00;101933.38;5050739;28;20041;-78
2023/08/20 03:55:48;;;;;;;13.35;10.85;;;;;;;14.29;100.00;101932.72;5051917;28;20025;-78
2023/08/20 03:58:13;;;;;;;13.13;9.95;;;;;;;14.30;100.00;101937.94;5048796;28;20029;-78
2023/08/20 04:00:39;;;;;;;15.77;10.70;;;;;;;14.28;100.00;101937.31;5048065;28;20369;-78
2023/08/20 04:03:04;;;;;;;17.75;11.60;;;;;;;14.27;100.00;101932.09;5047870;28;20028;-78
2023/08/20 04:05:29;;;;;;;19.02;12.55;;;;;;;14.28;100.00;101941.88;5049367;28;20082;-78
2023/08/20 04:07:55;;;;;;;16.83;11.27;;;;;;;14.20;100.00;101945.56;5036622;28;20028;-78
2023/08/20 04:10:20;;;;;;;13.45;9.95;;;;;;;14.16;100.00;101942.41;5053089;28;20028;-78
2023/08/20 04:12:46;;;;;;;12.50;9.75;;;;;;;14.13;100.00;101948.22;5052531;28;20396;-78
2023/08/20 04:15:11;;;;;;;14.45;10.55;;;;;;;14.14;100.00;101957.16;5057004;28;20025;-78
2023/08/20 04:17:36;;;;;;;13.88;9.70;;;;;;;14.10;100.00;101959.44;5058878;28;20033;-79
2023/08/20 04:20:04;;;;;;;11.07;9.50;;;;;;;14.09;100.00;101957.75;5084515;28;20025;-77
2023/08/20 04:22:31;;;;;;;13.73;9.98;;;;;;;14.07;100.00;101960.66;5043427;28;20121;-78
2023/08/20 04:24:56;;;;;;;14.48;9.90;;;;;;;14.05;100.00;101961.88;5059774;28;20021;-78
2023/08/20 04:27:22;;;;;;;15.27;10.35;;;;;;;14.04;100.00;101966.47;5062789;28;20098;-78
2023/08/20 04:29:47;;;;;;;16.73;11.93;;;;;;;14.07;100.00;101966.06;5056514;28;20032;-78
2023/08/20 04:32:12;;;;;;;18.67;11.77;;;;;;;14.13;100.00;101952.78;5064145;28;20029;-78
2023/08/20 04:34:40;;;;;;;15.15;11.23;;;;;;;14.13;100.00;101966.31;5056268;28;20403;-78
2023/08/20 04:37:06;;;;;;;16.25;10.73;;;;;;;14.16;100.00;101965.94;5056793;28;20025;-78
2023/08/20 04:39:31;;;;;;;19.45;12.23;;;;;;;14.26;100.00;101974.59;5051459;28;20045;-77
2023/08/20 04:42:00;;;;;;;16.67;11.80;;;;;;;14.27;100.00;101968.16;5057789;28;20458;-78
2023/08/20 04:44:25;;;;;;;16.30;11.32;;;;;;;14.29;100.00;101963.38;5050786;28;20033;-78
2023/08/20 04:46:51;;;;;;;16.23;11.45;;;;;;;14.33;100.00;101967.34;5051882;28;20033;-78
2023/08/20 04:49:17;;;;;;;17.58;11.38;;;;;;;14.42;100.00;101972.66;5051446;28;20029;-78
2023/08/20 04:51:42;;;;;;;17.10;11.30;;;;;;;14.48;100.00;101977.25;5051881;28;20086;-78
2023/08/20 04:54:07;;;;;;;15.95;11.73;;;;;;;14.62;100.00;101979.06;5062199;28;20028;-78
2023/08/20 04:56:33;;;;;;;16.05;10.73;;;;;;;14.73;100.00;101980.44;5055967;28;20040;-78
2023/08/20 04:58:58;;;;;;;14.07;10.43;;;;;;;14.80;100.00;101983.19;5052009;28;20028;-78
2023/08/20 05:01:24;;;;;;;16.80;10.23;;;;;;;14.84;100.00;101987.16;5053065;28;20037;-79
2023/08/20 05:03:49;;;;;;;15.55;10.80;;;;;;;14.87;100.00;101986.78;5051213;28;20071;-80
2023/08/20 05:06:14;;;;;;;15.85;10.52;;;;;;;14.92;100.00;101984.31;5059057;28;20070;-87
2023/08/20 05:08:43;;;;;;;14.77;10.38;;;;;;;14.94;100.00;101982.25;5051318;28;20028;-78
2023/08/20 05:11:09;;;;;;;13.82;9.77;;;;;;;15.01;100.00;101983.13;5051036;28;20055;-83
2023/08/20 05:13:35;;;;;;;13.98;9.88;;;;;;;15.05;100.00;101983.56;5059351;28;20044;-80
2023/08/20 05:16:00;;;;;;;12.35;9.40;;;;;;;15.12;100.00;101984.44;5059667;28;20032;-80
2023/08/20 05:18:26;;;;;;;15.90;9.68;;;;;;;15.24;100.00;101979.28;5051862;28;20036;-81
2023/08/20 05:20:55;;;;;;;12.27;9.25;;;;;;;15.27;100.00;101975.31;5033591;28;20029;-81
2023/08/20 05:23:20;;;;;;;12.25;9.43;;;;;;;15.31;100.00;101985.59;5062723;28;20047;-81
2023/08/20 05:25:45;;;;;;;12.38;9.52;;;;;;;15.41;100.00;101987.09;5055583;28;20021;-80
2023/08/20 05:28:11;;;;;;;14.38;9.25;;;;;;;15.48;100.00;101987.97;5049050;28;20485;-81
2023/08/20 05:30:36;;;;;;;12.32;9.55;;;;;;;15.60;100.00;101989.06;5057887;28;20044;-81
2023/08/20 05:33:02;;;;;;;13.57;9.18;;;;;;;15.72;100.00;101992.03;5052903;28;20458;-81
2023/08/20 05:35:28;;;;;;;11.73;8.07;;;;;;;15.83;100.00;101985.19;5072028;28;20025;-81
2023/08/20 05:37:53;;;;;;;11.23;8.90;;;;;;;15.93;100.00;101994.84;5056666;28;20029;-81
2023/08/20 05:40:20;;;;;;;13.20;8.90;;;;;;;16.05;100.00;101998.66;5056416;28;20087;-81
2023/08/20 05:42:46;;;;;;;13.77;8.82;;;;;;;16.16;100.00;101999.88;5055902;28;20029;-81
2023/08/20 05:45:11;;;;;;;12.55;9.20;;;;;;;16.29;100.00;101999.94;5049807;28;20074;-81
2023/08/20 05:47:36;;;;;;;12.38;8.27;;;;;;;16.40;100.00;102001.22;5045210;28;20033;-82
2023/08/20 05:50:02;;;;;;;14.48;8.90;;;;;;;16.51;100.00;102011.44;5047227;28;20696;-80
2023/08/20 05:52:27;;;;;;;10.07;8.10;;;;;;;16.66;100.00;102010.41;5050796;28;20164;-80
2023/08/20 05:54:54;;;;;;;12.18;8.68;;;;;;;16.75;100.00;102009.16;5051207;28;20021;-81
2023/08/20 05:57:19;;;;;;;14.57;9.00;;;;;;;16.90;100.00;102008.09;5050450;28;20033;-81
2023/08/20 05:59:44;;;;;;;12.10;8.48;;;;;;;17.07;100.00;102013.94;5052982;28;20028;-83
2023/08/20 06:02:10;;;;;;;12.10;9.07;;;;;;;17.26;100.00;102009.53;5046637;28;20449;-88
2023/08/20 06:04:35;;;;;;;14.02;9.07;;;;;;;17.42;100.00;102016.38;5046115;28;20491;-85
2023/08/20 06:07:01;;;;;;;10.63;8.43;;;;;;;17.66;100.00;102012.09;5049948;28;20988;-84
2023/08/20 06:09:26;;;;;;;13.65;9.25;;;;;;;17.89;100.00;102018.91;5055512;28;20079;-86
2023/08/20 06:11:52;;;;;;;11.82;8.48;;;;;;;18.18;100.00;102016.66;5040932;28;20033;-79
2023/08/20 06:14:17;;;;;;;12.90;8.32;;;;;;;18.94;100.00;102023.03;5043516;28;20596;-79
2023/08/20 06:16:44;;;;;;;9.95;8.38;;;;;;;20.20;97.02;102025.53;5045161;28;20123;-81
2023/08/20 06:19:09;;;;;;;11.05;8.70;;;;;;;21.23;87.46;102032.69;5052569;28;20028;-81
2023/08/20 06:21:37;;;;;;;14.10;9.77;;;;;;;22.35;79.61;102026.94;5050620;28;20036;-79
2023/08/20 06:24:03;;;;;;;11.23;8.60;;;;;;;23.39;75.07;102024.72;5070945;22;20477;-80
2023/08/20 06:26:28;;;;;;;11.55;8.80;;;;;;;23.77;72.59;102031.22;5090049;28;20070;-81
2023/08/20 06:28:53;;;;;;;23.33;9.20;;;;;;;24.27;67.42;102031.19;5090068;28;20020;-82
2023/08/20 06:31:19;;;;;;;11.88;8.70;;;;;;;23.44;70.36;102032.19;5089537;28;21523;-81
2023/08/20 06:33:44;;;;;;;11.55;8.77;;;;;;;23.64;71.57;102036.28;5084094;28;20116;-81
2023/08/20 06:36:10;;;;;;;13.02;8.23;;;;;;;23.76;68.94;102043.31;5089765;28;20016;-82
2023/08/20 06:38:35;;;;;;;14.50;7.93;;;;;;;23.86;67.99;102039.84;5087539;28;20028;-82
2023/08/20 06:41:01;;;;;;;12.57;8.00;;;;;;;24.60;67.62;102036.72;5089212;28;20024;-81
2023/08/20 06:43:26;;;;;;;11.20;7.53;;;;;;;25.19;64.90;102038.50;5090061;28;20024;-81
2023/08/20 06:45:52;;;;;;;12.63;7.45;;;;;;;25.39;62.72;102035.00;5095017;22;20059;-81
2023/08/20 06:48:19;;;;;;;13.27;7.55;;;;;;;26.26;63.65;102038.34;5089984;28;20031;-82
2023/08/20 06:50:45;;;;;;;11.25;7.90;;;;;;;26.13;60.58;102040.50;5089372;28;20043;-82
2023/08/20 06:53:10;;;;;;;12.65;7.82;;;;;;;26.91;59.71;102040.53;5085292;28;20046;-82
2023/08/20 06:55:36;;;;;;;12.13;8.10;;;;;;;27.75;55.54;102039.13;5090070;28;20024;-77
2023/08/20 06:58:01;;;;;;;13.32;8.13;;;;;;;27.05;58.00;102043.56;5089907;28;20034;-81
2023/08/20 07:00:27;;;;;;;11.80;8.80;;;;;;;26.86;59.56;102046.06;5089227;28;20036;-81
2023/08/20 07:02:52;;;;;;;13.43;8.75;;;;;;;28.02;57.42;102048.97;5071522;28;20043;-79
2023/08/20 07:05:18;;;;;;;11.98;8.65;;;;;;;27.72;55.47;102050.78;5089726;28;20101;-79
2023/08/20 07:07:43;;;;;;;15.50;9.30;;;;;;;27.56;56.06;102041.75;5091576;28;20464;-79
2023/08/20 07:10:08;;;;;;;10.20;8.50;;;;;;;27.37;56.88;102045.09;5086253;28;20040;-79
2023/08/20 07:12:34;;;;;;;11.30;8.10;;;;;;;27.59;55.77;102038.41;5087811;28;20031;-80
2023/08/20 07:14:59;;;;;;;9.23;6.70;;;;;;;28.45;53.67;102040.88;5091840;28;20028;-80
2023/08/20 07:17:25;;;;;;;12.00;9.23;;;;;;;28.12;52.97;102035.06;5083086;28;20495;-79
2023/08/20 07:19:50;;;;;;;13.90;9.10;;;;;;;27.80;55.10;102052.94;5089520;28;20031;-80
2023/08/20 07:22:15;;;;;;;11.73;9.35;;;;;;;27.58;55.77;102045.88;5091874;28;20038;-79
2023/08/20 07:24:41;;;;;;;14.15;9.85;;;;;;;27.80;55.85;102041.88;5090358;28;20472;-79
2023/08/20 07:27:12;;;;;;;14.63;10.30;;;;;;;28.13;54.23;102048.63;5091433;28;20070;-79
2023/08/20 07:29:37;;;;;;;12.90;9.18;;;;;;;28.83;53.72;102052.22;5091676;28;20145;-79
2023/08/20 07:32:03;;;;;;;13.35;9.88;;;;;;;28.99;51.19;102058.44;5086812;28;20036;-80
2023/08/20 07:34:30;;;;;;;14.05;10.55;;;;;;;28.48;53.75;102056.13;5085826;28;20032;-78
2023/08/20 07:36:56;;;;;;;12.50;10.35;;;;;;;28.29;54.23;102043.78;5091730;28;20019;-79
2023/08/20 07:39:22;;;;;;;16.33;11.70;;;;;;;28.27;54.90;102046.00;5083015;28;20027;-80
2023/08/20 07:41:47;;;;;;;14.13;9.40;;;;;;;29.93;50.13;102052.56;5095088;28;20032;-79
2023/08/20 07:44:13;;;;;;;13.48;9.85;;;;;;;30.99;47.03;102046.66;5101230;28;20028;-79
2023/08/20 07:46:38;;;;;;;13.73;9.60;;;;;;;32.23;42.90;102048.75;5109682;28;20024;-80
2023/08/20 07:49:04;;;;;;;13.20;9.75;;;;;;;31.64;44.62;102038.38;5096900;28;21334;-79
2023/08/20 07:51:29;;;;;;;14.65;10.38;;;;;;;31.68;43.78;102036.63;5092933;28;20069;-79
2023/08/20 07:53:55;;;;;;;13.32;9.73;;;;;;;32.74;41.96;102049.44;5091010;28;20024;-80
2023/08/20 07:56:20;;;;;;;13.73;9.50;;;;;;;33.32;40.29;102046.69;5090773;28;20024;-79
2023/08/20 07:58:46;;;;;;;13.07;9.45;;;;;;;31.28;43.64;102042.78;5091512;28;20024;-80
2023/08/20 08:01:13;;;;;;;10.20;6.03;;;;;;;31.60;42.82;102040.97;5089416;28;20055;-79
2023/08/20 08:03:39;;;;;;;7.20;4.22;;;;;;;31.99;41.16;102042.34;5089943;28;20560;-79
2023/08/20 08:06:05;;;;;;;8.93;4.40;;;;;;;31.44;40.82;102043.25;5091178;28;20020;-80
2023/08/20 08:08:30;;;;;;;7.70;4.00;;;;;;;30.55;42.48;102037.72;5089666;28;20032;-79
2023/08/20 08:10:56;;;;;;;6.88;3.60;;;;;;;30.76;44.31;102040.13;5090382;28;20107;-79
2023/08/20 08:13:22;;;;;;;8.00;3.78;;;;;;;31.33;42.12;102044.63;5091208;28;20061;-79
2023/08/20 08:15:48;;;;;;;8.20;4.55;;;;;;;31.75;41.23;102051.81;5089680;28;20076;-79
2023/08/20 08:18:13;;;;;;;7.32;4.10;;;;;;;31.63;40.67;102059.84;5089945;28;20028;-79
2023/08/20 08:20:39;;;;;;;6.38;3.58;;;;;;;31.66;41.68;102053.66;5091365;28;20056;-79
2023/08/20 08:23:04;;;;;;;7.13;4.40;;;;;;;30.53;41.93;102051.91;5089350;28;20027;-80
2023/08/20 08:25:30;;;;;;;8.82;4.50;;;;;;;30.55;43.82;102059.97;5089937;28;20343;-79
2023/08/20 08:27:55;;;;;;;9.63;4.05;;;;;;;30.69;42.27;102058.06;5090868;28;20024;-79
2023/08/20 08:30:20;;;;;;;5.88;3.10;;;;;;;33.04;39.05;102060.91;5090295;28;20050;-79
2023/08/20 08:32:46;;;;;;;6.32;3.40;;;;;;;33.69;35.85;102064.03;5089385;28;20032;-79
2023/08/20 08:35:11;;;;;;;8.77;3.60;;;;;;;33.34;35.70;102064.78;5089767;28;20058;-79
2023/08/20 08:37:37;;;;;;;9.95;3.53;;;;;;;34.29;33.77;102059.63;5090509;28;20027;-79
2023/08/20 08:40:05;;;;;;;8.82;4.40;;;;;;;32.62;37.82;102064.75;5089739;28;20028;-79
2023/08/20 08:42:33;;;;;;;7.10;4.65;;;;;;;32.29;38.31;102061.47;5090282;28;20036;-79
2023/08/20 08:45:02;;;;;;;10.15;6.45;;;;;;;33.56;36.81;102063.88;5089999;28;20041;-79
2023/08/20 08:47:28;;;;;;;8.52;5.60;;;;;;;34.88;34.09;102063.78;5081184;28;20035;-79
2023/08/20 08:49:55;;;;;;;11.02;6.30;;;;;;;34.05;34.86;102070.50;5089828;28;20028;-79
2023/08/20 08:52:21;;;;;;;8.77;5.10;;;;;;;32.38;38.89;102065.13;5090130;28;20028;-79
2023/08/20 08:54:46;;;;;;;8.57;5.15;;;;;;;32.43;39.78;102064.16;5052077;28;20029;-79
2023/08/20 08:57:12;;;;;;;6.60;4.00;;;;;;;33.49;36.60;102066.31;5060875;28;20025;-79
2023/08/20 08:59:37;;;;;;;8.68;5.20;;;;;;;32.10;39.21;102068.00;5072580;28;20031;-79
2023/08/20 09:02:07;;;;;;;8.13;4.45;;;;;;;33.99;35.56;102059.50;5074605;28;20090;-79
2023/08/20 09:04:35;;;;;;;8.93;4.97;;;;;;;33.89;35.45;102075.72;5075271;28;20081;-79
2023/08/20 09:07:00;;;;;;;8.35;4.20;;;;;;;32.90;37.48;102072.16;5094188;28;20024;-79
2023/08/20 09:09:26;;;;;;;7.72;4.50;;;;;;;33.72;37.50;102078.16;5093603;28;20100;-79
2023/08/20 09:11:52;;;;;;;7.18;4.38;;;;;;;34.72;34.73;102076.66;5058726;28;20032;-79
2023/08/20 09:14:29;;;;;;;7.53;3.55;;;;;;;35.25;33.87;102082.06;5093828;28;20020;-79
2023/08/20 09:16:59;;;;;;;8.77;4.40;;;;;;;33.27;37.79;102081.16;5092461;28;20032;-79
2023/08/20 09:19:24;;;;;;;8.98;4.55;;;;;;;36.01;32.47;102083.06;5093419;28;20020;-79
2023/08/20 09:21:52;;;;;;;7.13;4.13;;;;;;;35.84;32.04;102083.19;5075436;28;20028;-79
2023/08/20 09:24:25;;;;;;;7.78;3.15;;;;;;;35.07;34.33;102073.78;5112314;22;20059;-79
2023/08/20 09:26:56;;;;;;;7.47;3.60;;;;;;;34.27;34.62;102066.72;5075051;28;20081;-79
2023/08/20 09:29:21;;;;;;;11.57;3.80;;;;;;;33.35;36.63;102073.97;5076287;28;20055;-79
2023/08/20 09:31:47;;;;;;;7.38;3.53;;;;;;;33.65;37.09;102074.22;5057434;28;20472;-79
2023/08/20 09:34:13;;;;;;;5.75;3.13;;;;;;;35.67;33.03;102076.56;5093422;28;20027;-79
2023/08/20 09:36:39;;;;;;;9.30;3.70;;;;;;;33.96;35.16;102068.53;5085214;28;20043;-79
2023/08/20 09:39:04;;;;;;;6.15;2.53;;;;;;;34.81;33.63;102069.06;5092243;28;20023;-79
2023/08/20 09:41:31;;;;;;;6.57;2.83;;;;;;;34.26;34.51;102073.44;5096931;22;20442;-79
2023/08/20 09:43:57;;;;;;;9.13;3.50;;;;;;;31.88;38.04;102072.41;5093288;28;20024;-78
2023/08/20 09:46:27;;;;;;;8.82;2.75;;;;;;;34.21;34.41;102068.03;5091450;28;20081;-79
2023/08/20 09:48:54;;;;;;;5.13;2.90;;;;;;;34.59;34.39;102073.75;5093386;28;20028;-79
2023/08/20 09:51:27;;;;;;;9.82;3.00;;;;;;;34.40;34.37;102067.69;5070896;22;20065;-79
2023/08/20 09:54:14;;;;;;;5.57;3.25;;;;;;;34.40;34.77;102071.28;5055937;28;20047;-79
2023/08/20 09:56:39;;;;;;;7.18;3.10;;;;;;;35.27;33.39;102071.38;5073541;28;20039;-79
2023/08/20 09:59:05;;;;;;;7.53;3.30;;;;;;;34.44;34.50;102071.47;5068935;28;20020;-79
2023/08/20 10:01:30;;;;;;;7.78;3.10;;;;;;;34.22;34.56;102069.66;5060635;28;20496;-79
2023/08/20 10:03:56;;;;;;;7.82;3.08;;;;;;;34.47;34.48;102065.22;5085069;28;20103;-80
2023/08/20 10:06:24;;;;;;;7.35;2.88;;;;;;;33.64;35.08;102065.03;5039257;28;20029;-80
2023/08/20 10:08:51;;;;;;;6.68;2.55;;;;;;;34.59;33.28;102072.91;5065377;28;20034;-78
2023/08/20 10:11:16;;;;;;;6.22;2.30;;;;;;;36.30;30.91;102072.09;5085518;28;20086;-78
2023/08/20 10:13:41;;;;;;;8.85;2.67;;;;;;;35.33;31.53;102072.78;5079367;28;20423;-78
2023/08/20 10:16:07;;;;;;;5.78;2.50;;;;;;;36.06;29.43;102071.66;5072633;28;20016;-78
2023/08/20 10:18:34;;;;;;;7.32;2.50;;;;;;;34.09;32.70;102071.47;5080603;28;20421;-79
2023/08/20 10:21:01;;;;;;;5.40;2.20;;;;;;;33.30;34.36;102077.72;5064432;28;20029;-78
2023/08/20 10:23:26;;;;;;;8.07;2.60;;;;;;;33.19;34.01;102076.38;5062171;28;20039;-79
2023/08/20 10:25:52;;;;;;;6.38;2.55;;;;;;;33.65;34.63;102080.63;5072193;28;20024;-79
2023/08/20 10:28:28;;;;;;;4.57;2.13;;;;;;;34.65;32.07;102073.56;5079824;28;20034;-79
2023/08/20 10:31:09;;;;;;;6.20;2.72;;;;;;;34.52;32.25;102072.59;5080893;28;20466;-79
2023/08/20 10:33:36;;;;;;;4.18;2.22;;;;;;;34.15;33.13;102070.97;5080850;28;20036;-78
2023/08/20 10:36:26;;;;;;;5.10;2.00;;;;;;;34.18;32.89;102072.31;5071079;28;20103;-78
2023/08/20 10:38:58;;;;;;;5.82;2.13;;;;;;;34.11;33.95;102074.75;5089832;28;20034;-78
2023/08/20 10:41:27;;;;;;;3.63;1.80;;;;;;;35.12;28.99;102073.59;5083327;28;20111;-78
2023/08/20 10:43:55;;;;;;;5.47;1.70;;;;;;;34.15;30.08;102070.97;5083818;28;20123;-79
2023/08/20 10:46:25;;;;;;;3.15;1.80;;;;;;;34.29;30.29;102065.22;5092176;28;20431;-79
2023/08/20 10:48:51;;;;;;;4.93;1.90;;;;;;;32.97;30.78;102069.75;5082834;28;20733;-78
2023/08/20 10:51:40;;;;;;;3.63;1.60;;;;;;;33.84;29.63;102068.34;5080489;28;20337;-78
2023/08/20 10:54:07;;;;;;;4.10;1.80;;;;;;;33.80;31.13;102068.16;5108149;28;20055;-78
2023/08/20 10:56:43;;;;;;;3.92;1.50;;;;;;;34.56;30.44;102060.44;5114004;28;20016;-78
2023/08/20 10:59:09;;;;;;;4.38;1.50;;;;;;;34.05;30.75;102064.94;5108973;28;20084;-79
2023/08/20 11:01:35;;;;;;;2.38;1.58;;;;;;;33.41;30.92;102059.56;5093475;28;20016;-79
2023/08/20 11:04:04;;;;;;;3.30;1.58;;;;;;;33.16;31.00;102068.66;5083424;28;20367;-79
2023/08/20 11:06:31;;;;;;;3.58;1.40;;;;;;;34.28;29.21;102059.97;5087044;28;20023;-79
2023/08/20 11:08:57;;;;;;;3.13;1.00;;;;;;;35.10;26.63;102059.09;5095726;28;20039;-79